SILO RECORD LiDAR
| Silo ID | Silo Type | Reliability | Strength | Temperature | Humidity | Depth | Height | Volume | Weight | Flag | Internal IP | Time | VMS DATA | 3D 좌표계 |
|---|---|---|---|---|---|---|---|---|---|---|---|---|---|---|
| WJWJR05 | 1 | 6324 % | 7099 | 80 °C | 100 % | 9815 mm | 9084 mm | 5732 ㎥ | 1380 t | 15 | 2026-07-24 11:57:50.000 | |||
| WJWJR01 | 1 | 4074 % | 1582 | 80 °C | 100 % | 9693 mm | 1452 mm | 7147 ㎥ | 3358 t | 15 | 2026-07-24 11:57:49.000 | |||
| WJWJR05 | 1 | 3392 % | 8670 | 80 °C | 100 % | 7105 mm | 9194 mm | 6039 ㎥ | 5908 t | 15 | 2026-07-24 11:57:43.000 | |||
| WJWJR01 | 1 | 5536 % | 3770 | 80 °C | 100 % | 1642 mm | 3713 mm | 8083 ㎥ | 3147 t | 15 | 2026-07-24 11:57:42.000 | |||
| WJWJR01 | 1 | 6329 % | 8743 | 80 °C | 100 % | 9239 mm | 3577 mm | 8045 ㎥ | 2467 t | 15 | 2026-07-24 11:57:36.000 | |||
| WJWJR05 | 1 | 3666 % | 6680 | 80 °C | 100 % | 3547 mm | 7666 mm | 7141 ㎥ | 1663 t | 15 | 2026-07-24 11:57:35.000 | |||
| WJWJR01 | 1 | 1904 % | 7880 | 80 °C | 100 % | 6020 mm | 3652 mm | 5060 ㎥ | 9350 t | 15 | 2026-07-24 11:57:29.000 | |||
| WJWJR05 | 1 | 4990 % | 7373 | 80 °C | 100 % | 7894 mm | 3480 mm | 4174 ㎥ | 6724 t | 15 | 2026-07-24 11:57:28.000 | |||
| WJWJR01 | 1 | 3070 % | 9221 | 80 °C | 100 % | 6833 mm | 6266 mm | 1039 ㎥ | 8379 t | 15 | 2026-07-24 11:57:20.000 | |||
| WJWJR05 | 1 | 4265 % | 5861 | 80 °C | 100 % | 5092 mm | 7035 mm | 5366 ㎥ | 7094 t | 15 | 2026-07-24 11:57:20.000 | |||
| WJWJR05 | 1 | 3391 % | 5113 | 80 °C | 100 % | 7710 mm | 2114 mm | 5862 ㎥ | 6789 t | 15 | 2026-07-24 11:57:13.000 | |||
| WJWJR01 | 1 | 8347 % | 5562 | 80 °C | 100 % | 8146 mm | 9094 mm | 6195 ㎥ | 2027 t | 15 | 2026-07-24 11:57:13.000 | |||
| WJWJR01 | 1 | 4015 % | 2751 | 80 °C | 100 % | 6045 mm | 8904 mm | 1083 ㎥ | 5019 t | 15 | 2026-07-24 11:57:07.000 | |||
| WJWJR05 | 1 | 4826 % | 5791 | 80 °C | 100 % | 1152 mm | 3998 mm | 3115 ㎥ | 7294 t | 15 | 2026-07-24 11:57:06.000 | |||
| WJWJR05 | 1 | 6360 % | 4689 | 80 °C | 100 % | 3279 mm | 3537 mm | 3977 ㎥ | 4114 t | 15 | 2026-07-24 11:56:59.000 | |||
| WJWJR01 | 1 | 4953 % | 4638 | 80 °C | 100 % | 9245 mm | 8214 mm | 1740 ㎥ | 4966 t | 15 | 2026-07-24 11:56:59.000 | |||
| WJWJR01 | 1 | 5003 % | 2314 | 80 °C | 100 % | 7576 mm | 8680 mm | 7480 ㎥ | 1179 t | 15 | 2026-07-24 11:56:53.000 | |||
| WJWJR05 | 1 | 1476 % | 1128 | 80 °C | 100 % | 8120 mm | 8910 mm | 2153 ㎥ | 5642 t | 15 | 2026-07-24 11:56:52.000 | |||
| WJWJR01 | 1 | 9457 % | 7513 | 80 °C | 100 % | 1560 mm | 3232 mm | 1904 ㎥ | 4991 t | 15 | 2026-07-24 11:56:46.000 | |||
| WJWJR05 | 1 | 7838 % | 6460 | 80 °C | 100 % | 1211 mm | 3738 mm | 8290 ㎥ | 6711 t | 15 | 2026-07-24 11:56:45.000 |
[첫 페이지] [24] [25] [26] [27] 28 [29] [30] [31] [32] [마지막 페이지]